createdAt,value
2017-12-30T00:01:08.173Z,17.30
2017-12-30T00:04:03.437Z,20.57
2017-12-30T00:06:32.542Z,30.33
2017-12-30T00:09:02.391Z,24.60
2017-12-30T00:11:34.392Z,27.13
2017-12-30T00:14:05.082Z,20.23
2017-12-30T00:16:34.193Z,21.37
2017-12-30T00:19:04.081Z,17.67
2017-12-30T00:21:34.737Z,25.93
2017-12-30T00:24:28.027Z,27.93
2017-12-30T00:26:57.838Z,21.33
2017-12-30T00:29:27.022Z,22.07
2017-12-30T00:31:58.567Z,22.37
2017-12-30T00:34:28.324Z,22.40
2017-12-30T00:48:03.146Z,22.97
2017-12-30T00:50:33.828Z,24.07
2017-12-30T01:03:54.872Z,28.50
2017-12-30T01:06:27.505Z,20.53
2017-12-30T01:12:24.017Z,23.43
2017-12-30T01:14:53.247Z,26.10
2017-12-30T01:17:23.569Z,30.13
2017-12-30T01:19:52.607Z,21.63
2017-12-30T01:22:23.626Z,26.50
2017-12-30T01:24:59.873Z,26.27
2017-12-30T01:27:32.859Z,26.77
2017-12-30T01:30:08.459Z,24.53
2017-12-30T01:32:42.462Z,26.27
2017-12-30T01:35:15.953Z,19.23
2017-12-30T01:37:44.945Z,16.87
2017-12-30T01:40:20.395Z,18.67
2017-12-30T01:42:55.617Z,18.50
2017-12-30T01:45:26.248Z,15.67
2017-12-30T01:48:01.908Z,7.93
2017-12-30T01:50:41.438Z,9.60
2017-12-30T01:53:14.689Z,10.57
2017-12-30T01:55:47.678Z,9.17
2017-12-30T01:58:16.812Z,8.23
2017-12-30T02:00:47.230Z,15.70
2017-12-30T02:03:21.591Z,12.00
2017-12-30T02:05:57.454Z,13.63
2017-12-30T02:08:42.629Z,13.77
2017-12-30T02:11:12.729Z,9.73
2017-12-30T02:13:42.973Z,10.30
2017-12-30T02:16:17.198Z,7.93
2017-12-30T02:18:47.951Z,7.83
2017-12-30T02:21:24.450Z,6.97
2017-12-30T02:23:56.398Z,7.23
2017-12-30T02:26:33.438Z,6.20
2017-12-30T02:29:05.400Z,4.57
2017-12-30T02:31:37.090Z,6.70
2017-12-30T02:34:07.381Z,6.43
2017-12-30T02:36:37.407Z,9.60
2017-12-30T02:39:11.993Z,6.53
2017-12-30T02:41:48.294Z,6.70
2017-12-30T02:44:25.806Z,4.93
2017-12-30T02:47:23.170Z,5.57
2017-12-30T02:50:01.897Z,7.40
2017-12-30T02:52:40.434Z,3.63
2017-12-30T02:55:31.461Z,6.23
2017-12-30T02:58:02.460Z,5.70
2017-12-30T03:00:33.487Z,5.10
2017-12-30T03:03:03.113Z,7.13
2017-12-30T03:05:37.701Z,6.43
2017-12-30T03:08:08.997Z,3.50
2017-12-30T03:14:21.586Z,4.37
2017-12-30T03:16:54.779Z,4.10
2017-12-30T03:19:29.462Z,5.33
2017-12-30T03:22:04.162Z,3.43
2017-12-30T03:28:23.893Z,1.70
2017-12-30T03:30:56.809Z,2.00
2017-12-30T03:33:33.424Z,0.97
2017-12-30T03:36:08.121Z,2.70
2017-12-30T03:38:44.303Z,1.03
2017-12-30T03:41:19.275Z,3.00
2017-12-30T03:43:58.437Z,1.47
2017-12-30T03:46:36.034Z,0.70
2017-12-30T03:49:06.380Z,1.43
2017-12-30T03:51:41.996Z,1.27
2017-12-30T03:54:14.949Z,1.27
2017-12-30T03:57:06.392Z,3.33
2017-12-30T03:59:37.231Z,1.13
2017-12-30T04:02:07.055Z,1.20
2017-12-30T04:04:44.131Z,3.13
2017-12-30T04:07:20.575Z,1.53
2017-12-30T04:17:15.316Z,2.20
2017-12-30T04:19:46.085Z,3.30
2017-12-30T04:22:16.969Z,2.93
2017-12-30T04:24:46.272Z,2.30
2017-12-30T04:30:43.132Z,4.40
2017-12-30T04:33:15.801Z,3.73
2017-12-30T04:35:47.158Z,3.43
2017-12-30T04:38:16.405Z,4.73
2017-12-30T04:40:48.095Z,5.67
2017-12-30T04:43:19.922Z,5.17
2017-12-30T04:45:54.530Z,5.00
2017-12-30T04:48:28.495Z,5.03
2017-12-30T04:51:05.445Z,8.07
2017-12-30T04:53:37.948Z,8.30
2017-12-30T04:56:44.624Z,9.30
2017-12-30T04:59:23.084Z,7.63
2017-12-30T05:01:51.679Z,10.40
2017-12-30T05:04:24.896Z,18.77
2017-12-30T05:06:58.153Z,9.73
2017-12-30T05:09:35.773Z,14.13
2017-12-30T05:12:28.908Z,22.20
2017-12-30T05:14:58.371Z,20.67
2017-12-30T05:17:32.486Z,18.13
2017-12-30T05:20:06.543Z,28.53
2017-12-30T05:22:44.600Z,23.07
2017-12-30T05:25:20.175Z,22.83
2017-12-30T05:31:52.058Z,25.10
2017-12-30T05:34:29.551Z,32.70
2017-12-30T05:36:59.430Z,26.00
2017-12-30T05:39:29.024Z,25.27
2017-12-30T05:42:00.505Z,38.07
2017-12-30T05:44:35.929Z,25.23
2017-12-30T05:47:15.420Z,30.60
2017-12-30T05:49:50.105Z,34.60
2017-12-30T05:52:24.316Z,25.23
2017-12-30T05:54:57.884Z,26.27
2017-12-30T06:00:51.423Z,26.17
2017-12-30T06:03:22.675Z,35.87
2017-12-30T06:05:57.440Z,33.10
2017-12-30T06:08:28.431Z,30.43
2017-12-30T06:10:59.379Z,31.50
2017-12-30T06:13:38.428Z,31.10
2017-12-30T06:16:07.558Z,31.63
2017-12-30T06:18:47.074Z,37.30
2017-12-30T06:21:18.000Z,36.07
2017-12-30T06:23:56.675Z,30.67
2017-12-30T06:30:09.753Z,33.00
2017-12-30T06:32:43.395Z,35.37
2017-12-30T06:35:13.244Z,32.20
2017-12-30T06:37:52.378Z,31.70
2017-12-30T06:40:27.123Z,37.43
2017-12-30T06:50:05.549Z,31.60
2017-12-30T06:52:39.353Z,39.33
2017-12-30T06:55:09.463Z,31.60
2017-12-30T07:04:24.774Z,32.70
2017-12-30T07:06:55.248Z,37.33
2017-12-30T07:09:25.142Z,47.73
2017-12-30T07:11:57.452Z,34.37
2017-12-30T07:40:42.845Z,35.33
2017-12-30T07:43:15.642Z,40.40
2017-12-30T07:45:47.419Z,40.00
2017-12-30T07:48:18.682Z,35.57
2017-12-30T07:50:50.342Z,29.83
2017-12-30T07:53:23.786Z,31.57
2017-12-30T07:56:03.776Z,45.43
2017-12-30T07:58:51.588Z,43.27
2017-12-30T08:01:26.538Z,35.70
2017-12-30T08:04:04.425Z,37.07
2017-12-30T08:06:37.411Z,38.47
2017-12-30T08:09:08.074Z,32.57
2017-12-30T08:11:44.084Z,33.77
2017-12-30T08:14:30.820Z,34.33
2017-12-30T08:17:05.915Z,35.00
2017-12-30T08:19:37.671Z,36.60
2017-12-30T08:22:13.223Z,35.43
2017-12-30T08:24:44.622Z,31.00
2017-12-30T08:27:20.256Z,33.63
2017-12-30T08:40:37.527Z,37.60
2017-12-30T08:43:12.376Z,43.10
2017-12-30T08:46:23.664Z,45.13
2017-12-30T08:48:57.298Z,40.90
2017-12-30T08:51:31.546Z,37.30
2017-12-30T08:54:04.664Z,46.77
2017-12-30T08:56:37.454Z,43.63
2017-12-30T08:59:44.702Z,43.03
2017-12-30T09:02:15.173Z,42.63
2017-12-30T09:04:47.194Z,43.33
2017-12-30T09:07:19.493Z,31.93
2017-12-30T09:09:51.736Z,34.50
2017-12-30T09:12:22.690Z,44.97
2017-12-30T09:15:13.834Z,35.27
2017-12-30T09:17:45.178Z,37.07
2017-12-30T09:20:14.516Z,31.37
2017-12-30T09:22:48.801Z,36.40
2017-12-30T09:25:19.746Z,33.17
2017-12-30T09:27:53.994Z,31.20
2017-12-30T09:30:28.727Z,37.03
2017-12-30T09:33:04.160Z,30.00
2017-12-30T09:35:38.078Z,37.57
2017-12-30T09:38:12.897Z,28.30
2017-12-30T09:40:49.310Z,23.77
2017-12-30T09:43:26.375Z,27.03
2017-12-30T09:46:36.261Z,29.57
2017-12-30T09:49:10.651Z,24.90
2017-12-30T09:51:39.020Z,30.47
2017-12-30T09:57:04.991Z,32.77
2017-12-30T09:59:36.228Z,27.33
2017-12-30T10:02:10.533Z,22.77
2017-12-30T10:04:43.380Z,29.20
2017-12-30T10:07:17.641Z,23.73
2017-12-30T10:09:47.326Z,29.30
2017-12-30T10:12:25.019Z,28.07
2017-12-30T10:18:17.556Z,24.03
2017-12-30T10:20:47.233Z,29.83
2017-12-30T10:23:20.062Z,27.50
2017-12-30T10:25:52.059Z,21.27
2017-12-30T10:28:27.490Z,24.37
2017-12-30T10:31:02.037Z,26.10
2017-12-30T10:33:39.076Z,28.67
2017-12-30T10:36:14.129Z,26.40
2017-12-30T10:38:48.354Z,28.23
2017-12-30T10:41:23.576Z,26.90
2017-12-30T10:43:56.453Z,21.23
2017-12-30T10:49:51.627Z,23.47
2017-12-30T10:52:22.267Z,24.13
2017-12-30T10:54:54.169Z,27.80
2017-12-30T10:57:24.313Z,34.80
2017-12-30T10:59:54.488Z,32.23
2017-12-30T11:02:28.603Z,31.00
2017-12-30T11:05:02.362Z,21.03
2017-12-30T11:07:42.158Z,23.77
2017-12-30T11:10:14.088Z,38.93
2017-12-30T11:12:48.546Z,22.87
2017-12-30T11:15:21.061Z,29.07
2017-12-30T11:17:50.652Z,22.47
2017-12-30T11:20:21.921Z,28.83
2017-12-30T11:22:55.848Z,27.10
2017-12-30T11:25:30.907Z,22.03
2017-12-30T11:28:03.439Z,26.70
2017-12-30T11:30:33.090Z,30.47
2017-12-30T11:33:02.821Z,24.23
2017-12-30T11:35:34.148Z,27.83
2017-12-30T11:38:06.636Z,27.10
2017-12-30T11:40:38.754Z,26.60
2017-12-30T11:43:12.415Z,24.37
2017-12-30T11:45:46.526Z,22.20
2017-12-30T11:52:05.157Z,31.00
2017-12-30T11:54:42.837Z,28.93
2017-12-30T11:57:15.835Z,30.20
2017-12-30T11:59:53.573Z,27.73
2017-12-30T12:02:27.785Z,26.10
2017-12-30T12:05:03.845Z,23.70
2017-12-30T12:07:37.026Z,29.00
2017-12-30T12:10:06.539Z,22.90
2017-12-30T12:12:35.829Z,26.03
2017-12-30T12:15:11.036Z,25.10
2017-12-30T12:17:40.889Z,25.17
2017-12-30T12:20:14.271Z,22.97
2017-12-30T12:22:46.691Z,31.30
2017-12-30T12:25:19.583Z,27.07
2017-12-30T12:27:52.010Z,25.33
2017-12-30T12:30:25.025Z,24.77
2017-12-30T12:33:02.450Z,23.07
2017-12-30T12:35:33.506Z,24.87
2017-12-30T12:38:08.847Z,23.93
2017-12-30T12:40:43.692Z,28.30
2017-12-30T12:43:23.160Z,26.17
2017-12-30T12:45:58.696Z,25.97
2017-12-30T12:51:51.068Z,32.87
2017-12-30T12:54:23.201Z,26.97
2017-12-30T12:56:55.615Z,24.00
2017-12-30T12:59:27.926Z,29.77
2017-12-30T13:02:04.089Z,26.20
2017-12-30T13:04:37.651Z,23.90
2017-12-30T13:07:11.474Z,28.13
2017-12-30T13:09:46.134Z,28.23
2017-12-30T13:12:25.817Z,29.73
2017-12-30T13:15:00.431Z,23.00
2017-12-30T13:17:45.420Z,23.03
2017-12-30T13:20:17.177Z,23.77
2017-12-30T13:22:49.158Z,27.57
2017-12-30T13:25:21.798Z,28.10
2017-12-30T13:27:56.956Z,30.23
2017-12-30T13:30:32.309Z,26.27
2017-12-30T13:49:51.938Z,29.23
2017-12-30T13:52:22.185Z,27.00
2017-12-30T13:54:58.454Z,25.90
2017-12-30T13:57:34.585Z,20.23
2017-12-30T14:00:07.171Z,25.77
2017-12-30T14:02:42.003Z,29.87
2017-12-30T14:05:37.632Z,27.57
2017-12-30T14:08:07.485Z,22.70
2017-12-30T14:10:38.683Z,30.27
2017-12-30T14:13:10.450Z,28.00
2017-12-30T14:15:46.790Z,28.93
2017-12-30T14:24:43.820Z,31.33
2017-12-30T14:27:14.614Z,26.57
2017-12-30T14:29:50.042Z,29.57
2017-12-30T14:32:20.611Z,24.03
2017-12-30T14:35:31.264Z,26.97
2017-12-30T14:38:03.076Z,25.97
2017-12-30T14:40:35.568Z,30.87
2017-12-30T14:43:10.644Z,29.20
2017-12-30T14:45:44.933Z,31.03
2017-12-30T14:48:23.104Z,30.47
2017-12-30T14:51:30.812Z,33.63
2017-12-30T14:54:00.426Z,35.40
2017-12-30T14:56:37.924Z,23.23
2017-12-30T14:59:06.423Z,29.03
2017-12-30T15:01:36.029Z,28.93
2017-12-30T15:04:24.675Z,26.87
2017-12-30T15:07:02.218Z,25.70
2017-12-30T15:09:37.843Z,33.60
2017-12-30T15:12:11.789Z,32.80
2017-12-30T15:14:47.565Z,34.70
2017-12-30T15:17:22.023Z,28.93
2017-12-30T15:19:57.762Z,30.40
2017-12-30T15:22:31.731Z,36.83
2017-12-30T15:25:07.142Z,31.30
2017-12-30T15:27:40.464Z,30.43
2017-12-30T15:30:14.458Z,23.40
2017-12-30T15:32:50.286Z,29.43
2017-12-30T15:39:03.949Z,30.27
2017-12-30T15:41:40.215Z,36.60
2017-12-30T15:44:12.183Z,34.27
2017-12-30T15:46:42.448Z,36.00
2017-12-30T15:49:12.557Z,30.20
2017-12-30T15:52:03.204Z,32.50
2017-12-30T15:54:35.652Z,31.40
2017-12-30T15:57:07.110Z,30.00
2017-12-30T15:59:38.381Z,28.77
2017-12-30T16:02:09.802Z,29.50
2017-12-30T16:04:56.906Z,34.73
2017-12-30T16:07:30.077Z,30.27
2017-12-30T16:10:02.820Z,34.57
2017-12-30T16:12:36.749Z,30.53
2017-12-30T16:15:10.064Z,30.53
2017-12-30T16:17:45.920Z,32.47
2017-12-30T16:20:24.689Z,32.13
2017-12-30T16:22:54.387Z,33.63
2017-12-30T16:25:34.692Z,30.50
2017-12-30T16:28:12.154Z,34.03
2017-12-30T16:30:45.955Z,38.00
2017-12-30T16:33:17.955Z,31.33
2017-12-30T16:35:52.810Z,45.73
2017-12-30T16:38:23.886Z,41.57
2017-12-30T16:41:02.317Z,37.80
2017-12-30T16:43:32.462Z,35.13
2017-12-30T16:46:04.209Z,42.80
2017-12-30T16:48:39.402Z,38.13
2017-12-30T16:54:54.737Z,31.93
2017-12-30T16:57:24.539Z,35.87
2017-12-30T16:59:55.843Z,37.27
2017-12-30T17:02:26.478Z,38.77
2017-12-30T17:04:56.302Z,49.97
2017-12-30T17:07:27.621Z,40.10
2017-12-30T17:09:59.035Z,45.20
2017-12-30T17:12:30.283Z,36.57
2017-12-30T17:15:01.077Z,39.73
2017-12-30T17:17:37.249Z,38.47
2017-12-30T17:20:06.037Z,41.00
2017-12-30T17:23:17.233Z,34.23
2017-12-30T17:25:50.026Z,37.33
2017-12-30T17:28:21.722Z,37.07
2017-12-30T17:30:51.290Z,45.37
2017-12-30T17:33:22.840Z,35.53
2017-12-30T17:35:52.901Z,36.47
2017-12-30T17:41:48.045Z,41.33
2017-12-30T17:44:24.043Z,41.53
2017-12-30T17:46:56.461Z,45.20
2017-12-30T17:49:33.715Z,32.17
2017-12-30T17:59:11.405Z,48.33
2017-12-30T18:01:47.083Z,38.63
2017-12-30T18:04:21.025Z,42.57
2017-12-30T18:10:38.865Z,44.77
2017-12-30T18:13:13.313Z,44.07
2017-12-30T18:15:55.732Z,40.97
2017-12-30T18:18:28.011Z,28.80
2017-12-30T18:20:57.772Z,40.03
2017-12-30T18:23:51.041Z,40.27
2017-12-30T18:26:22.382Z,31.90
2017-12-30T18:28:53.905Z,45.93
2017-12-30T18:31:27.713Z,40.07
2017-12-30T18:34:00.279Z,32.53
2017-12-30T18:36:31.810Z,35.57
2017-12-30T18:53:13.587Z,38.67
2017-12-30T18:55:45.688Z,36.90
2017-12-30T18:58:17.327Z,36.53
2017-12-30T19:00:48.806Z,35.20
2017-12-30T19:03:20.423Z,38.00
2017-12-30T19:05:49.165Z,38.37
2017-12-30T19:15:24.771Z,38.33
2017-12-30T19:17:57.094Z,42.67
2017-12-30T19:20:28.806Z,36.13
2017-12-30T19:23:03.510Z,39.57
2017-12-30T19:25:34.095Z,31.27
2017-12-30T19:28:06.446Z,31.13
2017-12-30T19:30:37.385Z,38.43
2017-12-30T19:33:10.211Z,36.27
2017-12-30T19:35:41.329Z,42.37
2017-12-30T19:38:12.084Z,35.00
2017-12-30T19:40:42.649Z,38.60
2017-12-30T19:43:14.777Z,30.63
2017-12-30T19:45:46.648Z,35.63
2017-12-30T19:48:17.959Z,32.60
2017-12-30T19:50:49.439Z,31.43
2017-12-30T20:00:44.104Z,36.73
2017-12-30T20:03:13.727Z,33.80
2017-12-30T20:05:46.533Z,40.20
2017-12-30T20:08:18.900Z,36.53
2017-12-30T20:14:36.543Z,37.13
2017-12-30T20:17:10.203Z,40.77
2017-12-30T20:19:44.763Z,37.03
2017-12-30T20:22:19.305Z,33.93
2017-12-30T20:32:13.800Z,34.47
2017-12-30T20:34:46.864Z,31.57
2017-12-30T20:37:18.073Z,30.67
2017-12-30T20:53:15.593Z,28.83
2017-12-30T21:02:30.301Z,36.40
2017-12-30T21:05:02.624Z,39.17
2017-12-30T21:07:33.775Z,37.53
2017-12-30T21:13:49.896Z,32.77
2017-12-30T21:16:25.001Z,33.43
2017-12-30T21:18:58.151Z,30.20
2017-12-30T21:21:30.072Z,29.97
2017-12-30T21:24:02.325Z,25.43
2017-12-30T21:30:15.663Z,32.87
2017-12-30T21:32:47.544Z,29.93
2017-12-30T21:35:17.236Z,25.53
2017-12-30T21:37:51.581Z,34.40
2017-12-30T21:47:27.093Z,24.00
2017-12-30T21:49:57.286Z,18.23
2017-12-30T21:52:27.583Z,31.90
2017-12-30T21:58:36.959Z,22.03
2017-12-30T22:01:11.324Z,23.33
2017-12-30T22:03:45.842Z,23.17
2017-12-30T22:06:20.399Z,15.83
2017-12-30T22:08:57.561Z,18.63
2017-12-30T22:18:28.445Z,23.40
2017-12-30T22:20:58.918Z,21.43
2017-12-30T22:23:30.253Z,23.30
2017-12-30T22:26:04.400Z,27.77
2017-12-30T22:28:35.328Z,17.40
2017-12-30T22:31:09.303Z,20.23
2017-12-30T22:33:39.529Z,15.77
2017-12-30T22:36:08.656Z,14.87
2017-12-30T22:38:39.242Z,14.60
2017-12-30T22:48:00.070Z,20.00
2017-12-30T22:50:33.910Z,13.63
2017-12-30T22:53:09.500Z,10.20
2017-12-30T22:55:45.635Z,8.77
2017-12-30T22:58:21.286Z,12.00
2017-12-30T23:00:58.266Z,12.33
2017-12-30T23:03:30.757Z,8.40
2017-12-30T23:06:16.368Z,12.17
2017-12-30T23:08:47.952Z,10.57
2017-12-30T23:11:17.005Z,11.30
2017-12-30T23:13:46.934Z,7.57
2017-12-30T23:16:16.768Z,10.90
2017-12-30T23:18:52.208Z,7.03
2017-12-30T23:21:23.392Z,7.70
2017-12-30T23:23:53.757Z,9.47
2017-12-30T23:26:36.857Z,14.77
2017-12-30T23:29:15.865Z,9.93
2017-12-30T23:31:50.969Z,8.77
2017-12-30T23:34:22.720Z,10.53
2017-12-30T23:36:51.932Z,7.77
2017-12-30T23:39:20.952Z,12.63
2017-12-30T23:41:51.481Z,6.63
2017-12-30T23:44:27.828Z,16.73
2017-12-30T23:47:01.200Z,10.60
2017-12-30T23:49:37.341Z,12.03
2017-12-30T23:52:08.845Z,11.70
2017-12-30T23:54:38.313Z,10.60
2017-12-30T23:57:08.778Z,14.03
2017-12-30T23:59:38.067Z,9.10
